createdAt,value
2018-08-22T00:01:34.861Z,14.53
2018-08-22T00:04:02.837Z,13.83
2018-08-22T00:06:30.842Z,12.70
2018-08-22T00:08:58.870Z,15.20
2018-08-22T00:11:26.837Z,12.63
2018-08-22T00:13:54.842Z,15.53
2018-08-22T00:16:22.846Z,14.03
2018-08-22T00:18:50.846Z,15.53
2018-08-22T00:21:18.841Z,12.67
2018-08-22T00:23:46.830Z,19.73
2018-08-22T00:26:14.850Z,19.03
2018-08-22T00:28:42.850Z,15.90
2018-08-22T00:31:10.866Z,13.37
2018-08-22T00:33:38.854Z,12.67
2018-08-22T00:36:06.865Z,13.70
2018-08-22T00:38:34.845Z,18.03
2018-08-22T00:41:02.841Z,17.40
2018-08-22T00:43:30.833Z,13.97
2018-08-22T00:45:58.833Z,14.40
2018-08-22T00:48:26.826Z,11.70
2018-08-22T00:50:54.826Z,18.70
2018-08-22T00:53:22.826Z,13.60
2018-08-22T00:55:50.829Z,15.00
2018-08-22T00:58:18.833Z,15.43
2018-08-22T01:00:46.830Z,12.20
2018-08-22T01:03:14.826Z,14.00
2018-08-22T01:05:42.833Z,18.73
2018-08-22T01:08:10.851Z,15.87
2018-08-22T01:10:38.859Z,13.13
2018-08-22T01:13:06.870Z,14.13
2018-08-22T01:15:34.880Z,13.00
2018-08-22T01:18:02.870Z,14.00
2018-08-22T01:20:30.883Z,13.27
2018-08-22T01:22:58.877Z,14.57
2018-08-22T01:25:26.881Z,15.60
2018-08-22T01:27:54.879Z,15.17
2018-08-22T01:30:22.870Z,12.70
2018-08-22T01:32:50.857Z,11.23
2018-08-22T01:35:18.861Z,12.90
2018-08-22T01:37:46.856Z,15.20
2018-08-22T01:40:14.846Z,14.33
2018-08-22T01:42:42.841Z,14.83
2018-08-22T01:45:10.830Z,14.33
2018-08-22T01:47:38.833Z,15.90
2018-08-22T01:50:06.822Z,13.30
2018-08-22T01:52:34.835Z,12.70
2018-08-22T01:55:02.819Z,14.90
2018-08-22T01:57:30.821Z,14.20
2018-08-22T01:59:58.799Z,22.20
2018-08-22T02:02:26.798Z,13.40
2018-08-22T02:04:54.781Z,14.93
2018-08-22T02:07:22.790Z,12.53
2018-08-22T02:09:50.778Z,15.63
2018-08-22T02:12:18.778Z,14.57
2018-08-22T02:14:46.774Z,17.60
2018-08-22T02:17:14.774Z,11.10
2018-08-22T02:19:42.777Z,11.80
2018-08-22T02:22:10.782Z,15.83
2018-08-22T02:24:38.784Z,17.03
2018-08-22T02:27:06.782Z,13.63
2018-08-22T02:29:34.786Z,12.67
2018-08-22T02:32:02.790Z,16.50
2018-08-22T02:34:30.786Z,16.53
2018-08-22T02:36:58.790Z,13.53
2018-08-22T02:39:26.791Z,12.50
2018-08-22T02:41:54.786Z,16.63
2018-08-22T02:44:22.778Z,17.37
2018-08-22T02:46:50.785Z,12.23
2018-08-22T02:49:18.794Z,17.73
2018-08-22T02:51:46.803Z,13.90
2018-08-22T02:54:14.809Z,15.83
2018-08-22T02:56:42.918Z,12.73
2018-08-22T02:59:10.918Z,12.43
2018-08-22T03:01:38.918Z,18.50
2018-08-22T03:04:06.934Z,13.40
2018-08-22T03:06:34.940Z,12.70
2018-08-22T03:09:03.362Z,12.87
2018-08-22T03:11:31.374Z,14.07
2018-08-22T03:13:59.382Z,14.70
2018-08-22T03:16:27.397Z,14.87
2018-08-22T03:18:55.395Z,15.23
2018-08-22T03:21:23.395Z,14.50
2018-08-22T03:23:51.394Z,13.47
2018-08-22T03:26:19.395Z,14.13
2018-08-22T03:28:47.404Z,14.83
2018-08-22T03:31:16.507Z,13.73
2018-08-22T03:33:44.502Z,16.00
2018-08-22T03:36:12.567Z,17.53
2018-08-22T03:38:40.575Z,12.93
2018-08-22T03:41:08.594Z,13.43
2018-08-22T03:43:36.594Z,13.60
2018-08-22T03:46:04.625Z,17.53
2018-08-22T03:48:32.594Z,14.60
2018-08-22T03:51:00.594Z,14.80
2018-08-22T03:53:28.667Z,16.57
2018-08-22T03:55:56.662Z,23.43
2018-08-22T03:58:24.674Z,16.63
2018-08-22T04:00:52.674Z,14.30
2018-08-22T04:03:20.662Z,15.73
2018-08-22T04:05:48.643Z,16.47
2018-08-22T04:08:16.629Z,16.37
2018-08-22T04:10:44.622Z,15.83
2018-08-22T04:13:12.666Z,15.93
2018-08-22T04:15:40.656Z,14.77
2018-08-22T04:18:08.674Z,17.00
2018-08-22T04:20:36.666Z,17.40
2018-08-22T04:23:04.702Z,15.10
2018-08-22T04:25:32.731Z,15.17
2018-08-22T04:28:00.726Z,15.40
2018-08-22T04:30:28.733Z,16.37
2018-08-22T04:32:56.766Z,20.47
2018-08-22T04:35:24.747Z,16.50
2018-08-22T04:37:52.776Z,12.47
2018-08-22T04:40:20.756Z,14.93
2018-08-22T04:42:48.751Z,15.07
2018-08-22T04:45:16.762Z,14.47
2018-08-22T04:47:44.773Z,12.03
2018-08-22T04:50:12.766Z,13.00
2018-08-22T04:52:40.767Z,16.53
2018-08-22T04:55:08.746Z,13.30
2018-08-22T04:57:36.747Z,16.40
2018-08-22T05:00:05.255Z,14.80
2018-08-22T05:02:33.250Z,15.00
2018-08-22T05:05:01.243Z,17.20
2018-08-22T05:07:29.304Z,18.30
2018-08-22T05:09:57.320Z,14.73
2018-08-22T05:12:25.318Z,14.17
2018-08-22T05:14:53.331Z,12.07
2018-08-22T05:17:21.494Z,14.93
2018-08-22T05:19:49.905Z,16.00
2018-08-22T05:22:17.985Z,14.50
2018-08-22T05:24:46.032Z,13.10
2018-08-22T05:27:14.008Z,11.13
2018-08-22T05:29:42.023Z,13.07
2018-08-22T05:32:10.002Z,15.83
2018-08-22T05:34:37.998Z,21.10
2018-08-22T05:37:06.002Z,13.83
2018-08-22T05:39:34.038Z,14.50
2018-08-22T05:42:02.056Z,15.10
2018-08-22T05:44:30.063Z,26.93
2018-08-22T05:46:58.071Z,14.80
2018-08-22T05:49:26.078Z,14.00
2018-08-22T05:51:54.078Z,17.77
2018-08-22T05:54:22.070Z,13.90
2018-08-22T05:56:51.316Z,16.13
2018-08-22T05:59:19.347Z,16.83
2018-08-22T06:01:47.336Z,13.93
2018-08-22T06:04:15.342Z,14.23
2018-08-22T06:06:43.458Z,13.27
2018-08-22T06:09:12.639Z,13.93
2018-08-22T06:11:41.639Z,17.70
2018-08-22T06:14:09.636Z,11.30
2018-08-22T06:16:37.623Z,11.40
2018-08-22T06:19:05.658Z,14.93
2018-08-22T06:21:33.666Z,14.63
2018-08-22T06:24:01.654Z,14.00
2018-08-22T06:26:29.679Z,18.87
2018-08-22T06:28:57.670Z,11.57
2018-08-22T06:31:25.717Z,12.60
2018-08-22T06:33:53.782Z,17.83
2018-08-22T06:36:21.812Z,18.53
2018-08-22T06:38:49.793Z,13.03
2018-08-22T06:41:17.774Z,13.27
2018-08-22T06:43:45.775Z,12.20
2018-08-22T06:46:14.122Z,12.67
2018-08-22T06:48:42.125Z,15.83
2018-08-22T06:51:10.143Z,23.53
2018-08-22T06:53:38.121Z,13.53
2018-08-22T06:56:06.113Z,17.80
2018-08-22T06:58:34.130Z,12.90
2018-08-22T07:01:02.122Z,12.03
2018-08-22T07:03:30.189Z,11.00
2018-08-22T07:05:58.203Z,11.63
2018-08-22T07:08:26.183Z,14.43
2018-08-22T07:10:54.194Z,11.10
2018-08-22T07:13:22.170Z,10.13
2018-08-22T07:15:50.162Z,11.63
2018-08-22T07:18:18.282Z,12.97
2018-08-22T07:20:46.353Z,13.53
2018-08-22T07:23:14.331Z,15.63
2018-08-22T07:25:42.350Z,11.50
2018-08-22T07:28:10.341Z,11.73
2018-08-22T07:30:38.352Z,17.03
2018-08-22T07:33:06.523Z,12.13
2018-08-22T07:35:34.536Z,11.30
2018-08-22T07:38:02.563Z,13.63
2018-08-22T07:40:30.587Z,11.53
2018-08-22T07:42:58.602Z,7.70
2018-08-22T07:45:26.616Z,8.40
2018-08-22T07:47:54.627Z,9.60
2018-08-22T07:50:22.840Z,13.70
2018-08-22T07:52:56.099Z,8.63
2018-08-22T07:55:24.124Z,7.80
2018-08-22T07:57:52.126Z,12.27
2018-08-22T08:00:24.162Z,8.10
2018-08-22T08:02:52.175Z,12.40
2018-08-22T08:05:20.193Z,13.37
2018-08-22T08:07:48.176Z,6.70
2018-08-22T08:10:20.526Z,8.90
2018-08-22T08:12:48.538Z,8.37
2018-08-22T08:15:16.571Z,6.63
2018-08-22T08:17:44.567Z,8.00
2018-08-22T08:20:12.616Z,10.07
2018-08-22T08:22:40.614Z,6.53
2018-08-22T08:25:08.660Z,5.07
2018-08-22T08:27:36.674Z,4.50
2018-08-22T08:30:05.251Z,6.17
2018-08-22T08:32:33.272Z,5.67
2018-08-22T08:35:01.311Z,6.23
2018-08-22T08:37:29.316Z,6.13
2018-08-22T08:39:57.336Z,5.87
2018-08-22T08:42:25.369Z,6.23
2018-08-22T08:44:53.395Z,7.77
2018-08-22T08:47:21.454Z,6.03
2018-08-22T08:49:49.568Z,7.93
2018-08-22T08:52:17.603Z,5.83
2018-08-22T08:54:45.628Z,8.03
2018-08-22T08:57:13.717Z,6.20
2018-08-22T08:59:41.652Z,9.33
2018-08-22T09:02:09.813Z,7.20
2018-08-22T09:04:37.813Z,7.20
2018-08-22T09:07:05.826Z,5.93
2018-08-22T09:09:33.822Z,6.33
2018-08-22T09:12:01.840Z,5.17
2018-08-22T09:14:30.114Z,8.43
2018-08-22T09:16:58.919Z,6.13
2018-08-22T09:19:27.144Z,5.63
2018-08-22T09:21:55.142Z,7.87
2018-08-22T09:24:23.177Z,6.90
2018-08-22T09:26:51.169Z,5.20
2018-08-22T09:29:19.205Z,5.10
2018-08-22T09:31:47.262Z,4.97
2018-08-22T09:34:15.276Z,10.70
2018-08-22T09:36:43.300Z,6.07
2018-08-22T09:39:12.817Z,9.60
2018-08-22T09:41:40.982Z,4.83
2018-08-22T09:44:09.108Z,5.27
2018-08-22T09:46:38.006Z,8.10
2018-08-22T09:49:06.185Z,5.53
2018-08-22T09:51:34.370Z,6.10
2018-08-22T09:54:02.539Z,5.43
2018-08-22T09:56:30.612Z,6.17
2018-08-22T09:58:58.750Z,4.83
2018-08-22T10:01:32.171Z,4.90
2018-08-22T10:04:01.188Z,6.97
2018-08-22T10:06:37.485Z,5.30
2018-08-22T10:09:07.385Z,5.70
2018-08-22T10:11:35.399Z,4.70
2018-08-22T10:14:03.427Z,4.23
2018-08-22T10:16:31.478Z,5.17
2018-08-22T10:18:59.510Z,6.77
2018-08-22T10:21:27.677Z,11.93
2018-08-22T10:23:55.688Z,4.30
2018-08-22T10:26:23.842Z,4.97
2018-08-22T10:28:52.306Z,4.37
2018-08-22T10:31:20.392Z,4.40
2018-08-22T10:33:48.564Z,5.73
2018-08-22T10:36:16.571Z,4.83
2018-08-22T10:38:44.582Z,4.80
2018-08-22T10:41:12.644Z,4.47
2018-08-22T10:43:40.863Z,4.77
2018-08-22T10:46:09.322Z,6.20
2018-08-22T10:48:37.519Z,4.40
2018-08-22T10:51:06.080Z,5.30
2018-08-22T10:53:34.282Z,6.80
2018-08-22T10:56:02.495Z,3.97
2018-08-22T10:58:30.777Z,4.30
2018-08-22T11:00:59.269Z,3.97
2018-08-22T11:03:27.649Z,4.57
2018-08-22T11:05:55.671Z,6.10
2018-08-22T11:08:23.845Z,5.00
2018-08-22T11:10:52.137Z,4.57
2018-08-22T11:13:20.415Z,5.10
2018-08-22T11:15:49.240Z,5.50
2018-08-22T11:18:17.251Z,5.90
2018-08-22T11:20:47.190Z,4.50
2018-08-22T11:23:20.881Z,5.10
2018-08-22T11:25:54.842Z,5.10
2018-08-22T11:28:28.589Z,5.37
2018-08-22T11:31:02.204Z,4.90
2018-08-22T11:33:35.879Z,4.97
2018-08-22T11:36:03.390Z,4.07
2018-08-22T11:38:31.452Z,5.30
2018-08-22T11:40:59.529Z,5.00
2018-08-22T11:43:27.559Z,4.40
2018-08-22T11:45:55.589Z,4.33
2018-08-22T11:48:23.652Z,5.47
2018-08-22T11:50:51.658Z,4.03
2018-08-22T11:53:19.868Z,4.67
2018-08-22T11:55:48.239Z,4.10
2018-08-22T11:58:16.348Z,4.53
2018-08-22T12:00:44.416Z,5.33
2018-08-22T12:03:12.417Z,6.67
2018-08-22T12:05:40.668Z,5.40
2018-08-22T12:08:08.696Z,4.80
2018-08-22T12:10:36.741Z,4.87
2018-08-22T12:13:04.928Z,9.70
2018-08-22T12:15:33.800Z,4.47
2018-08-22T12:18:01.833Z,4.97
2018-08-22T12:20:29.866Z,4.10
2018-08-22T12:22:57.903Z,4.47
2018-08-22T12:25:25.946Z,5.33
2018-08-22T12:27:53.943Z,4.33
2018-08-22T12:30:21.952Z,4.03
2018-08-22T12:32:50.072Z,6.97
2018-08-22T12:35:18.075Z,4.30
2018-08-22T12:37:46.116Z,4.83
2018-08-22T12:40:14.119Z,5.00
2018-08-22T12:42:42.116Z,4.17
2018-08-22T12:45:10.131Z,4.43
2018-08-22T12:47:38.159Z,5.20
2018-08-22T12:50:06.163Z,5.27
2018-08-22T12:52:34.181Z,5.30
2018-08-22T12:55:02.183Z,5.77
2018-08-22T12:57:30.231Z,4.93
2018-08-22T12:59:58.279Z,5.20
2018-08-22T13:02:26.287Z,5.57
2018-08-22T13:04:54.305Z,6.40
2018-08-22T13:07:22.342Z,10.47
2018-08-22T13:09:50.456Z,5.30
2018-08-22T13:12:18.474Z,6.50
2018-08-22T13:14:46.493Z,6.93
2018-08-22T13:17:14.516Z,6.83
2018-08-22T13:19:42.506Z,8.47
2018-08-22T13:22:10.524Z,7.33
2018-08-22T13:24:38.601Z,5.37
2018-08-22T13:27:06.588Z,6.33
2018-08-22T13:29:34.586Z,7.47
2018-08-22T13:32:02.628Z,8.63
2018-08-22T13:34:30.634Z,6.13
2018-08-22T13:36:58.652Z,7.90
2018-08-22T13:39:26.655Z,4.70
2018-08-22T13:41:54.676Z,9.90
2018-08-22T13:44:22.778Z,5.63
2018-08-22T13:46:50.794Z,7.00
2018-08-22T13:49:18.832Z,5.30
2018-08-22T13:51:46.860Z,7.83
2018-08-22T13:54:14.868Z,6.47
2018-08-22T13:56:42.891Z,7.10
2018-08-22T13:59:10.991Z,6.13
2018-08-22T14:01:39.079Z,6.33
2018-08-22T14:04:07.055Z,8.97
2018-08-22T14:06:35.168Z,6.30
2018-08-22T14:09:03.812Z,5.60
2018-08-22T14:11:31.840Z,9.17
2018-08-22T14:13:59.884Z,6.90
2018-08-22T14:16:27.947Z,13.00
2018-08-22T14:18:56.018Z,10.83
2018-08-22T14:21:24.087Z,6.60
2018-08-22T14:23:52.233Z,6.20
2018-08-22T14:26:20.276Z,6.43
2018-08-22T14:28:48.386Z,12.43
2018-08-22T14:31:16.648Z,8.20
2018-08-22T14:33:44.769Z,5.63
2018-08-22T14:36:12.726Z,13.13
2018-08-22T14:38:40.763Z,7.00
2018-08-22T14:41:08.926Z,10.00
2018-08-22T14:43:37.218Z,7.60
2018-08-22T14:46:05.278Z,6.17
2018-08-22T14:48:33.300Z,7.37
2018-08-22T14:51:01.438Z,6.07
2018-08-22T14:53:29.492Z,6.30
2018-08-22T14:55:57.607Z,9.40
2018-08-22T14:58:25.613Z,5.73
2018-08-22T15:00:53.723Z,8.83
2018-08-22T15:03:21.956Z,8.10
2018-08-22T15:05:49.755Z,6.33
2018-08-22T15:08:17.818Z,8.60
2018-08-22T15:10:46.596Z,17.20
2018-08-22T15:13:14.667Z,9.93
2018-08-22T15:15:42.875Z,8.47
2018-08-22T15:18:10.919Z,9.13
2018-08-22T15:20:38.939Z,6.53
2018-08-22T15:23:07.049Z,10.43
2018-08-22T15:25:35.326Z,7.20
2018-08-22T15:28:03.363Z,9.03
2018-08-22T15:30:31.468Z,6.27
2018-08-22T15:32:59.531Z,7.23
2018-08-22T15:35:27.745Z,9.20
2018-08-22T15:37:55.810Z,7.77
2018-08-22T15:40:23.802Z,7.67
2018-08-22T15:42:51.828Z,7.70
2018-08-22T15:45:19.836Z,7.60
2018-08-22T15:47:47.859Z,6.60
2018-08-22T15:50:15.909Z,6.03
2018-08-22T15:52:43.928Z,10.10
2018-08-22T15:55:14.117Z,9.10
2018-08-22T15:57:51.139Z,8.70
2018-08-22T16:00:24.769Z,10.10
2018-08-22T16:02:52.801Z,7.77
2018-08-22T16:05:20.927Z,8.17
2018-08-22T16:07:48.936Z,7.70
2018-08-22T16:10:16.942Z,17.90
2018-08-22T16:12:44.983Z,8.23
2018-08-22T16:15:12.988Z,8.37
2018-08-22T16:17:42.768Z,6.17
2018-08-22T16:20:10.807Z,6.80
2018-08-22T16:22:38.841Z,5.80
2018-08-22T16:25:06.895Z,6.60
2018-08-22T16:27:36.677Z,6.27
2018-08-22T16:30:04.747Z,7.20
2018-08-22T16:32:32.876Z,8.37
2018-08-22T16:35:01.013Z,11.93
2018-08-22T16:37:29.163Z,8.47
2018-08-22T16:39:57.228Z,12.40
2018-08-22T16:42:35.421Z,9.50
2018-08-22T16:45:05.543Z,13.40
2018-08-22T16:47:36.474Z,7.60
2018-08-22T16:50:06.144Z,6.73
2018-08-22T16:52:34.354Z,16.97
2018-08-22T16:55:08.064Z,6.60
2018-08-22T16:57:36.105Z,10.63
2018-08-22T17:00:04.321Z,8.30
2018-08-22T17:02:32.411Z,7.33
2018-08-22T17:05:00.448Z,8.93
2018-08-22T17:07:28.485Z,11.40
2018-08-22T17:09:56.786Z,10.83
2018-08-22T17:12:24.795Z,9.53
2018-08-22T17:14:52.903Z,8.10
2018-08-22T17:17:20.909Z,8.53
2018-08-22T17:19:48.984Z,8.90
2018-08-22T17:22:17.009Z,7.97
2018-08-22T17:24:45.046Z,8.53
2018-08-22T17:27:13.087Z,8.97
2018-08-22T17:29:41.139Z,6.77
2018-08-22T17:32:09.267Z,20.73
2018-08-22T17:34:37.310Z,9.60
2018-08-22T17:37:06.886Z,9.47
2018-08-22T17:39:34.950Z,16.33
2018-08-22T17:42:03.049Z,9.00
2018-08-22T17:44:31.243Z,11.50
2018-08-22T17:46:59.328Z,6.80
2018-08-22T17:49:27.345Z,8.90
2018-08-22T17:51:56.559Z,12.23
2018-08-22T17:54:25.071Z,8.83
2018-08-22T17:56:58.759Z,7.70
2018-08-22T17:59:28.705Z,6.97
2018-08-22T18:01:57.937Z,7.60
2018-08-22T18:04:25.985Z,8.10
2018-08-22T18:06:54.094Z,8.27
2018-08-22T18:09:22.159Z,7.87
2018-08-22T18:11:50.289Z,7.80
2018-08-22T18:14:18.317Z,9.93
2018-08-22T18:16:46.363Z,9.00
2018-08-22T18:19:14.570Z,11.70
2018-08-22T18:21:46.699Z,15.47
2018-08-22T18:24:14.748Z,14.93
2018-08-22T18:26:43.387Z,16.63
2018-08-22T18:29:11.465Z,20.60
2018-08-22T18:31:39.656Z,17.60
2018-08-22T18:34:07.782Z,23.83
2018-08-22T18:36:36.476Z,29.03
2018-08-22T18:39:07.495Z,26.10
2018-08-22T18:41:35.704Z,23.70
2018-08-22T18:44:04.000Z,21.60
2018-08-22T18:46:32.031Z,21.30
2018-08-22T18:49:00.660Z,13.37
2018-08-22T18:51:28.770Z,12.10
2018-08-22T18:53:56.819Z,15.80
2018-08-22T18:56:24.889Z,11.23
2018-08-22T18:58:53.911Z,9.63
2018-08-22T19:01:22.019Z,13.40
2018-08-22T19:03:50.055Z,13.03
2018-08-22T19:06:18.299Z,10.70
2018-08-22T19:08:46.766Z,12.17
2018-08-22T19:11:14.759Z,11.10
2018-08-22T19:13:42.741Z,11.10
2018-08-22T19:16:12.826Z,15.00
2018-08-22T19:18:44.282Z,11.70
2018-08-22T19:21:12.328Z,15.70
2018-08-22T19:23:40.387Z,11.83
2018-08-22T19:26:08.582Z,13.33
2018-08-22T19:29:09.435Z,15.10
2018-08-22T19:31:42.229Z,15.33
2018-08-22T19:34:11.951Z,11.97
2018-08-22T19:36:39.944Z,13.77
2018-08-22T19:39:07.939Z,24.77
2018-08-22T19:41:35.958Z,12.50
2018-08-22T19:44:04.483Z,13.47
2018-08-22T19:46:32.471Z,11.67
2018-08-22T19:49:02.734Z,15.13
2018-08-22T19:51:30.652Z,13.80
2018-08-22T19:54:03.632Z,13.10
2018-08-22T19:56:31.957Z,11.80
2018-08-22T19:59:00.493Z,16.87
2018-08-22T20:01:29.517Z,13.70
2018-08-22T20:03:57.652Z,15.53
2018-08-22T20:06:26.031Z,18.63
2018-08-22T20:08:55.103Z,11.73
2018-08-22T20:11:24.518Z,13.97
2018-08-22T20:13:56.480Z,16.03
2018-08-22T20:16:24.530Z,14.27
2018-08-22T20:18:55.526Z,14.50
2018-08-22T20:21:29.014Z,19.10
2018-08-22T20:23:57.131Z,18.73
2018-08-22T20:26:26.012Z,14.17
2018-08-22T20:28:55.179Z,13.40
2018-08-22T20:31:23.190Z,10.50
2018-08-22T20:33:56.967Z,13.33
2018-08-22T20:36:24.972Z,12.87
2018-08-22T20:38:52.906Z,20.43
2018-08-22T20:41:21.570Z,14.23
2018-08-22T20:43:49.761Z,16.20
2018-08-22T20:46:17.787Z,13.20
2018-08-22T20:48:47.767Z,15.83
2018-08-22T20:51:15.815Z,11.30
2018-08-22T20:53:43.825Z,11.30
2018-08-22T20:56:11.807Z,12.57
2018-08-22T20:58:41.521Z,14.33
2018-08-22T21:01:09.516Z,15.77
2018-08-22T21:03:37.532Z,12.07
2018-08-22T21:06:08.530Z,12.57
2018-08-22T21:08:36.688Z,15.17
2018-08-22T21:11:04.854Z,13.17
2018-08-22T21:13:32.891Z,12.70
2018-08-22T21:16:00.847Z,11.03
2018-08-22T21:18:28.861Z,19.17
2018-08-22T21:20:57.144Z,15.10
2018-08-22T21:23:25.170Z,14.83
2018-08-22T21:25:53.161Z,13.20
2018-08-22T21:28:23.066Z,15.23
2018-08-22T21:30:56.318Z,13.30
2018-08-22T21:33:24.294Z,12.10
2018-08-22T21:35:52.374Z,14.77
2018-08-22T21:38:20.378Z,10.17
2018-08-22T21:40:48.394Z,12.13
2018-08-22T21:43:16.400Z,14.03
2018-08-22T21:45:45.338Z,12.93
2018-08-22T21:48:17.326Z,12.13
2018-08-22T21:50:45.767Z,17.43
2018-08-22T21:53:13.849Z,13.07
2018-08-22T21:55:42.996Z,18.00
2018-08-22T21:58:11.650Z,12.40
2018-08-22T22:00:39.652Z,10.90
2018-08-22T22:03:08.601Z,20.43
2018-08-22T22:05:46.102Z,12.60
2018-08-22T22:08:14.101Z,11.27
2018-08-22T22:10:42.211Z,12.30
2018-08-22T22:13:10.951Z,11.70
2018-08-22T22:15:43.146Z,10.20
2018-08-22T22:18:11.236Z,15.60
2018-08-22T22:20:39.540Z,12.13
2018-08-22T22:23:07.555Z,12.47
2018-08-22T22:25:35.563Z,15.07
2018-08-22T22:28:03.612Z,11.23
2018-08-22T22:30:31.653Z,13.80
2018-08-22T22:33:00.514Z,10.80
2018-08-22T22:35:34.049Z,12.60
2018-08-22T22:38:10.530Z,12.47
2018-08-22T22:40:38.845Z,11.07
2018-08-22T22:43:07.470Z,11.80
2018-08-22T22:45:35.479Z,11.23
2018-08-22T22:48:03.458Z,10.00
2018-08-22T22:50:31.475Z,9.47
2018-08-22T22:52:59.466Z,9.97
2018-08-22T22:55:28.314Z,10.70
2018-08-22T22:57:56.323Z,11.33
2018-08-22T23:00:24.411Z,11.50
2018-08-22T23:02:57.962Z,10.93
2018-08-22T23:05:29.896Z,11.70
2018-08-22T23:07:57.954Z,10.77
2018-08-22T23:10:25.974Z,13.27
2018-08-22T23:12:53.981Z,10.07
2018-08-22T23:15:23.834Z,13.10
2018-08-22T23:17:53.233Z,10.10
2018-08-22T23:20:26.952Z,12.13
2018-08-22T23:22:55.506Z,10.83
2018-08-22T23:25:23.899Z,11.03
2018-08-22T23:27:51.900Z,12.80
2018-08-22T23:30:27.271Z,9.30
2018-08-22T23:32:55.300Z,18.23
2018-08-22T23:35:24.913Z,12.70
2018-08-22T23:37:56.949Z,15.00
2018-08-22T23:40:26.012Z,14.10
2018-08-22T23:42:54.440Z,10.57
2018-08-22T23:45:22.494Z,9.73
2018-08-22T23:47:50.569Z,11.50
2018-08-22T23:50:18.610Z,10.97
2018-08-22T23:52:53.062Z,11.57
2018-08-22T23:55:22.274Z,11.70
2018-08-22T23:57:50.755Z,10.23
